createdAt,value
2022-08-20T00:00:50.791Z,16.60
2022-08-20T00:03:32.205Z,16.60
2022-08-20T00:06:09.764Z,16.60
2022-08-20T00:08:37.589Z,16.60
2022-08-20T00:11:08.479Z,16.60
2022-08-20T00:13:42.503Z,16.60
2022-08-20T00:16:10.589Z,16.60
2022-08-20T00:18:38.970Z,16.60
2022-08-20T00:21:08.978Z,16.60
2022-08-20T00:23:44.905Z,16.60
2022-08-20T00:26:13.098Z,16.60
2022-08-20T00:28:40.825Z,16.60
2022-08-20T00:31:10.416Z,16.60
2022-08-20T00:33:38.497Z,16.60
2022-08-20T00:36:09.393Z,16.60
2022-08-20T00:38:41.732Z,16.60
2022-08-20T00:41:12.849Z,16.60
2022-08-20T00:43:46.128Z,16.60
2022-08-20T00:46:31.309Z,16.60
2022-08-20T00:49:01.774Z,16.60
2022-08-20T00:51:32.288Z,16.60
2022-08-20T00:54:08.043Z,16.60
2022-08-20T00:56:36.398Z,16.60
2022-08-20T00:59:11.363Z,16.60
2022-08-20T01:01:55.228Z,16.60
2022-08-20T01:04:25.154Z,16.60
2022-08-20T01:06:52.479Z,16.60
2022-08-20T01:09:33.564Z,16.60
2022-08-20T01:12:07.829Z,16.60
2022-08-20T01:14:34.939Z,16.60
2022-08-20T01:17:08.416Z,16.60
2022-08-20T01:19:43.194Z,16.60
2022-08-20T01:22:32.007Z,16.60
2022-08-20T01:25:08.310Z,16.60
2022-08-20T01:27:55.290Z,16.50
2022-08-20T01:30:26.403Z,16.50
2022-08-20T01:32:53.345Z,16.50
2022-08-20T01:35:22.388Z,16.50
2022-08-20T01:37:49.418Z,16.50
2022-08-20T01:40:29.464Z,16.50
2022-08-20T01:42:59.282Z,16.50
2022-08-20T01:45:30.269Z,16.50
2022-08-20T01:47:58.497Z,16.50
2022-08-20T01:50:29.045Z,16.50
2022-08-20T01:53:11.787Z,16.50
2022-08-20T01:55:39.470Z,16.60
2022-08-20T01:58:06.470Z,16.60
2022-08-20T02:00:35.602Z,16.60
2022-08-20T02:03:03.645Z,16.60
2022-08-20T02:05:32.601Z,16.60
2022-08-20T02:08:00.266Z,16.60
2022-08-20T02:10:27.168Z,16.60
2022-08-20T02:13:00.401Z,16.60
2022-08-20T02:15:35.238Z,16.60
2022-08-20T02:18:08.912Z,16.60
2022-08-20T02:20:36.311Z,16.60
2022-08-20T02:23:05.423Z,16.60
2022-08-20T02:25:34.737Z,16.60
2022-08-20T02:28:04.379Z,16.60
2022-08-20T02:30:35.904Z,16.60
2022-08-20T02:33:05.084Z,16.60
2022-08-20T02:35:33.832Z,16.60
2022-08-20T02:38:01.321Z,16.60
2022-08-20T02:40:30.616Z,16.60
2022-08-20T02:43:02.038Z,16.60
2022-08-20T02:45:31.324Z,16.60
2022-08-20T02:47:59.107Z,16.50
2022-08-20T02:50:27.452Z,16.60
2022-08-20T02:52:54.726Z,16.50
2022-08-20T02:55:25.302Z,16.60
2022-08-20T02:57:58.575Z,16.50
2022-08-20T03:00:27.365Z,16.50
2022-08-20T03:02:54.290Z,16.50
2022-08-20T03:05:21.201Z,16.50
2022-08-20T03:07:56.580Z,16.50
2022-08-20T03:10:33.369Z,16.50
2022-08-20T03:13:02.344Z,16.50
2022-08-20T03:15:31.679Z,16.50
2022-08-20T03:17:58.985Z,16.50
2022-08-20T03:20:27.119Z,16.50
2022-08-20T03:22:54.183Z,16.50
2022-08-20T03:25:21.548Z,16.50
2022-08-20T03:27:53.908Z,16.50
2022-08-20T03:30:23.069Z,16.50
2022-08-20T03:32:50.221Z,16.50
2022-08-20T03:35:18.907Z,16.50
2022-08-20T03:37:48.100Z,16.40
2022-08-20T03:40:19.504Z,16.40
2022-08-20T03:42:46.333Z,16.40
2022-08-20T03:45:18.423Z,16.40
2022-08-20T03:47:48.255Z,16.40
2022-08-20T03:50:22.890Z,16.40
2022-08-20T03:52:51.710Z,16.40
2022-08-20T03:55:18.947Z,16.40
2022-08-20T03:57:55.407Z,16.40
2022-08-20T04:00:33.672Z,16.40
2022-08-20T04:03:00.900Z,16.40
2022-08-20T04:05:30.242Z,16.40
2022-08-20T04:08:02.910Z,16.40
2022-08-20T04:10:30.528Z,16.40
2022-08-20T04:12:57.445Z,16.40
2022-08-20T04:15:24.718Z,16.40
2022-08-20T04:17:52.780Z,16.30
2022-08-20T04:20:23.446Z,16.40
2022-08-20T04:22:59.226Z,16.30
2022-08-20T04:25:29.773Z,16.40
2022-08-20T04:27:58.210Z,16.40
2022-08-20T04:30:26.635Z,16.40
2022-08-20T04:32:54.433Z,16.40
2022-08-20T04:35:24.663Z,16.40
2022-08-20T04:37:59.637Z,16.40
2022-08-20T04:40:45.190Z,16.40
2022-08-20T04:43:12.395Z,16.40
2022-08-20T04:45:40.333Z,16.40
2022-08-20T04:48:11.712Z,16.40
2022-08-20T04:50:43.819Z,16.40
2022-08-20T04:53:12.638Z,16.40
2022-08-20T04:55:42.583Z,16.50
2022-08-20T04:58:18.193Z,16.50
2022-08-20T05:01:13.060Z,16.50
2022-08-20T05:03:41.366Z,16.60
2022-08-20T05:06:09.998Z,16.60
2022-08-20T05:08:38.602Z,16.60
2022-08-20T05:11:27.591Z,16.70
2022-08-20T05:13:53.705Z,16.70
2022-08-20T05:16:20.976Z,16.80
2022-08-20T05:18:52.453Z,16.80
2022-08-20T05:21:20.839Z,16.80
2022-08-20T05:23:49.455Z,16.90
2022-08-20T05:26:17.032Z,16.90
2022-08-20T05:28:57.536Z,16.90
2022-08-20T05:31:31.417Z,17.00
2022-08-20T05:34:09.762Z,17.00
2022-08-20T05:36:49.138Z,17.00
2022-08-20T05:39:18.198Z,17.00
2022-08-20T05:41:45.389Z,17.00
2022-08-20T05:44:14.158Z,17.00
2022-08-20T05:46:43.574Z,17.00
2022-08-20T05:49:13.580Z,17.00
2022-08-20T05:51:40.515Z,17.00
2022-08-20T05:54:07.562Z,17.10
2022-08-20T05:56:36.070Z,17.00
2022-08-20T05:59:04.942Z,17.00
2022-08-20T06:01:33.564Z,17.00
2022-08-20T06:04:19.663Z,17.00
2022-08-20T06:06:47.530Z,17.00
2022-08-20T06:09:30.678Z,17.00
2022-08-20T06:12:03.586Z,17.00
2022-08-20T06:14:31.589Z,17.00
2022-08-20T06:17:13.266Z,17.00
2022-08-20T06:19:44.316Z,17.00
2022-08-20T06:22:19.154Z,17.00
2022-08-20T06:24:51.195Z,16.90
2022-08-20T06:27:21.466Z,17.00
2022-08-20T06:29:48.354Z,17.00
2022-08-20T06:32:15.426Z,17.00
2022-08-20T06:34:50.904Z,17.00
2022-08-20T06:37:30.826Z,17.00
2022-08-20T06:40:07.163Z,17.00
2022-08-20T06:42:34.662Z,17.10
2022-08-20T06:45:04.929Z,17.10
2022-08-20T06:47:32.725Z,17.10
2022-08-20T06:49:59.567Z,17.20
2022-08-20T06:52:37.766Z,17.20
2022-08-20T06:55:15.488Z,17.20
2022-08-20T06:57:43.423Z,17.30
2022-08-20T07:00:19.186Z,17.40
2022-08-20T07:02:47.107Z,17.40
2022-08-20T07:05:14.184Z,17.50
2022-08-20T07:07:46.011Z,17.60
2022-08-20T07:10:19.965Z,17.70
2022-08-20T07:12:47.535Z,17.80
2022-08-20T07:15:14.956Z,17.90
2022-08-20T07:17:41.882Z,18.00
2022-08-20T07:20:14.533Z,18.10
2022-08-20T07:22:42.382Z,18.10
2022-08-20T07:25:12.648Z,18.20
2022-08-20T07:27:40.098Z,18.20
2022-08-20T07:30:28.086Z,18.20
2022-08-20T07:32:55.055Z,18.20
2022-08-20T07:35:23.109Z,18.30
2022-08-20T07:37:52.072Z,18.40
2022-08-20T07:40:26.071Z,18.40
2022-08-20T07:42:54.886Z,18.40
2022-08-20T07:45:22.770Z,18.40
2022-08-20T07:47:50.257Z,18.50
2022-08-20T07:50:19.652Z,18.50
2022-08-20T07:52:47.053Z,18.50
2022-08-20T07:55:16.484Z,18.50
2022-08-20T07:57:47.542Z,18.50
2022-08-20T08:00:15.291Z,18.60
2022-08-20T08:02:42.432Z,18.60
2022-08-20T08:05:10.430Z,18.70
2022-08-20T08:07:39.262Z,18.60
2022-08-20T08:10:13.762Z,18.60
2022-08-20T08:12:45.071Z,18.70
2022-08-20T08:15:16.955Z,18.80
2022-08-20T08:17:46.354Z,18.80
2022-08-20T08:20:13.271Z,18.90
2022-08-20T08:22:42.405Z,18.90
2022-08-20T08:25:11.792Z,18.90
2022-08-20T08:27:39.233Z,18.90
2022-08-20T08:30:06.868Z,19.00
2022-08-20T08:32:36.405Z,19.10
2022-08-20T08:35:08.314Z,19.00
2022-08-20T08:37:37.757Z,19.10
2022-08-20T08:40:05.902Z,19.10
2022-08-20T08:42:43.299Z,19.10
2022-08-20T08:45:12.633Z,19.10
2022-08-20T08:47:41.305Z,19.10
2022-08-20T08:50:13.339Z,19.00
2022-08-20T08:52:42.232Z,19.10
2022-08-20T08:55:13.258Z,19.10
2022-08-20T08:57:41.458Z,19.10
2022-08-20T09:00:14.827Z,19.10
2022-08-20T09:02:55.209Z,19.10
2022-08-20T09:05:27.308Z,19.20
2022-08-20T09:07:54.479Z,19.30
2022-08-20T09:10:22.945Z,19.30
2022-08-20T09:12:50.664Z,19.40
2022-08-20T09:15:21.162Z,19.50
2022-08-20T09:17:48.112Z,19.70
2022-08-20T09:20:15.124Z,19.80
2022-08-20T09:22:43.132Z,19.80
2022-08-20T09:25:10.144Z,19.90
2022-08-20T09:27:36.992Z,19.80
2022-08-20T09:30:07.780Z,19.80
2022-08-20T09:32:34.720Z,19.80
2022-08-20T09:35:01.766Z,19.90
2022-08-20T09:37:35.127Z,19.80
2022-08-20T09:40:06.385Z,19.80
2022-08-20T09:42:40.266Z,19.80
2022-08-20T09:45:10.808Z,19.80
2022-08-20T09:47:39.792Z,19.90
2022-08-20T09:50:21.686Z,19.90
2022-08-20T09:52:52.790Z,19.90
2022-08-20T09:55:38.014Z,19.90
2022-08-20T09:58:13.086Z,19.90
2022-08-20T10:00:40.404Z,20.00
2022-08-20T10:03:07.270Z,20.00
2022-08-20T10:05:34.137Z,20.00
2022-08-20T10:08:04.557Z,20.10
2022-08-20T10:10:31.467Z,20.20
2022-08-20T10:12:58.362Z,20.30
2022-08-20T10:15:25.509Z,20.40
2022-08-20T10:17:52.412Z,20.50
2022-08-20T10:20:20.422Z,20.50
2022-08-20T10:22:47.310Z,20.40
2022-08-20T10:25:14.180Z,20.30
2022-08-20T10:27:41.044Z,20.30
2022-08-20T10:30:08.506Z,20.20
2022-08-20T10:32:35.334Z,20.10
2022-08-20T10:35:02.841Z,20.10
2022-08-20T10:37:29.763Z,20.00
2022-08-20T10:39:56.778Z,20.00
2022-08-20T10:42:23.951Z,19.90
2022-08-20T10:44:51.037Z,20.00
2022-08-20T10:47:25.866Z,20.00
2022-08-20T10:49:54.834Z,20.00
2022-08-20T10:52:22.679Z,20.10
2022-08-20T10:54:50.133Z,20.10
2022-08-20T10:57:23.330Z,20.20
2022-08-20T10:59:51.827Z,20.20
2022-08-20T11:02:19.535Z,20.40
2022-08-20T11:04:46.660Z,20.70
2022-08-20T11:07:19.705Z,20.70
2022-08-20T11:09:48.904Z,20.70
2022-08-20T11:12:18.143Z,20.90
2022-08-20T11:14:45.391Z,21.00
2022-08-20T11:17:13.015Z,21.20
2022-08-20T11:19:44.906Z,21.20
2022-08-20T11:22:11.972Z,21.30
2022-08-20T11:24:39.176Z,21.40
2022-08-20T11:27:07.865Z,21.50
2022-08-20T11:29:36.393Z,21.50
2022-08-20T11:32:04.782Z,21.60
2022-08-20T11:34:34.033Z,21.70
2022-08-20T11:37:01.104Z,21.70
2022-08-20T11:39:28.043Z,21.70
2022-08-20T11:41:55.525Z,21.70
2022-08-20T11:44:22.405Z,21.70
2022-08-20T11:46:50.033Z,21.60
2022-08-20T11:49:17.061Z,21.50
2022-08-20T11:51:49.668Z,21.50
2022-08-20T11:54:17.435Z,21.40
2022-08-20T11:56:45.808Z,21.30
2022-08-20T11:59:13.427Z,21.20
2022-08-20T12:01:40.403Z,21.20
2022-08-20T12:04:07.283Z,21.00
2022-08-20T12:06:34.251Z,20.90
2022-08-20T12:09:01.146Z,20.80
2022-08-20T12:11:28.085Z,20.40
2022-08-20T12:13:55.001Z,20.30
2022-08-20T12:16:21.861Z,20.20
2022-08-20T12:18:49.347Z,20.20
2022-08-20T12:21:16.433Z,20.10
2022-08-20T12:23:43.610Z,20.10
2022-08-20T12:26:10.733Z,20.30
2022-08-20T12:28:37.676Z,20.40
2022-08-20T12:31:04.751Z,20.40
2022-08-20T12:33:31.628Z,20.60
2022-08-20T12:35:58.506Z,20.70
2022-08-20T12:38:25.501Z,20.90
2022-08-20T12:40:52.325Z,20.90
2022-08-20T12:43:24.260Z,21.00
2022-08-20T12:45:51.972Z,21.10
2022-08-20T12:48:20.895Z,21.10
2022-08-20T12:50:50.009Z,21.10
2022-08-20T12:53:16.989Z,21.00
2022-08-20T12:55:43.932Z,20.80
2022-08-20T12:58:11.095Z,20.70
2022-08-20T13:00:48.537Z,20.70
2022-08-20T13:03:17.375Z,20.70
2022-08-20T13:05:44.305Z,20.60
2022-08-20T13:08:12.719Z,20.60
2022-08-20T13:10:45.634Z,20.70
2022-08-20T13:13:14.282Z,20.80
2022-08-20T13:15:41.807Z,20.90
2022-08-20T13:18:09.035Z,20.80
2022-08-20T13:20:36.727Z,20.70
2022-08-20T13:23:06.721Z,20.60
2022-08-20T13:25:34.209Z,20.60
2022-08-20T13:28:04.468Z,20.70
2022-08-20T13:30:33.146Z,20.80
2022-08-20T13:33:00.052Z,20.80
2022-08-20T13:35:27.006Z,20.80
2022-08-20T13:37:53.861Z,20.80
2022-08-20T13:40:20.792Z,20.90
2022-08-20T13:42:47.656Z,20.80
2022-08-20T13:45:14.529Z,20.70
2022-08-20T13:47:42.698Z,20.50
2022-08-20T13:50:21.521Z,20.60
2022-08-20T13:52:48.726Z,20.50
2022-08-20T13:55:20.282Z,20.40
2022-08-20T13:57:48.489Z,20.40
2022-08-20T14:00:19.750Z,20.50
2022-08-20T14:02:47.162Z,20.50
2022-08-20T14:05:18.441Z,20.40
2022-08-20T14:07:47.269Z,20.40
2022-08-20T14:10:18.670Z,20.30
2022-08-20T14:12:46.323Z,20.20
2022-08-20T14:15:13.560Z,20.10
2022-08-20T14:17:43.765Z,20.00
2022-08-20T14:20:16.903Z,19.90
2022-08-20T14:22:44.727Z,19.80
2022-08-20T14:25:13.822Z,19.80
2022-08-20T14:27:41.238Z,19.70
2022-08-20T14:30:12.329Z,19.60
2022-08-20T14:32:39.244Z,19.50
2022-08-20T14:35:07.318Z,19.50
2022-08-20T14:37:38.114Z,19.50
2022-08-20T14:40:08.959Z,19.50
2022-08-20T14:42:36.275Z,19.30
2022-08-20T14:45:06.416Z,19.00
2022-08-20T14:47:41.842Z,18.90
2022-08-20T14:50:16.596Z,18.70
2022-08-20T14:52:44.068Z,18.50
2022-08-20T14:55:17.032Z,18.40
2022-08-20T14:57:44.398Z,18.30
2022-08-20T15:00:15.853Z,18.20
2022-08-20T15:02:42.647Z,18.20
2022-08-20T15:05:09.749Z,18.20
2022-08-20T15:07:40.351Z,18.10
2022-08-20T15:10:12.825Z,18.10
2022-08-20T15:12:39.670Z,18.10
2022-08-20T15:15:15.365Z,18.20
2022-08-20T15:17:51.488Z,18.20
2022-08-20T15:20:21.264Z,18.30
2022-08-20T15:22:48.935Z,18.30
2022-08-20T15:25:18.201Z,18.40
2022-08-20T15:27:45.854Z,18.40
2022-08-20T15:30:16.673Z,18.50
2022-08-20T15:32:44.025Z,18.60
2022-08-20T15:35:13.213Z,18.60
2022-08-20T15:37:46.743Z,18.70
2022-08-20T15:40:17.095Z,18.70
2022-08-20T15:42:47.398Z,18.80
2022-08-20T15:45:21.521Z,18.90
2022-08-20T15:48:10.722Z,18.90
2022-08-20T15:51:03.105Z,18.90
2022-08-20T15:53:47.600Z,19.00
2022-08-20T15:56:37.815Z,19.00
2022-08-20T15:59:29.437Z,19.00
2022-08-20T16:02:25.107Z,19.10
2022-08-20T16:05:23.796Z,19.10
2022-08-20T16:08:12.684Z,19.00
2022-08-20T16:11:06.765Z,19.10
2022-08-20T16:13:44.511Z,19.00
2022-08-20T16:16:16.971Z,19.00
2022-08-20T16:18:49.530Z,19.00
2022-08-20T16:21:19.130Z,19.00
2022-08-20T16:23:46.257Z,19.10
2022-08-20T16:26:34.443Z,18.90
2022-08-20T16:29:09.948Z,18.90
2022-08-20T16:31:47.455Z,18.90
2022-08-20T16:34:34.939Z,18.90
2022-08-20T16:37:17.212Z,18.90
2022-08-20T16:39:54.881Z,18.90
2022-08-20T16:42:25.725Z,18.90
2022-08-20T16:44:54.958Z,18.80
2022-08-20T16:47:33.493Z,18.80
2022-08-20T16:50:24.139Z,18.80
2022-08-20T16:52:53.744Z,18.80
2022-08-20T16:55:22.656Z,18.80
2022-08-20T16:57:51.707Z,18.80
2022-08-20T17:00:40.912Z,18.70
2022-08-20T17:03:38.639Z,18.80
2022-08-20T17:06:40.589Z,18.80
2022-08-20T17:09:10.960Z,18.80
2022-08-20T17:11:38.363Z,18.80
2022-08-20T17:14:14.846Z,18.80
2022-08-20T17:16:48.960Z,18.80
2022-08-20T17:19:27.882Z,18.80
2022-08-20T17:21:55.792Z,18.90
2022-08-20T17:24:30.074Z,18.90
2022-08-20T17:27:01.738Z,18.90
2022-08-20T17:29:30.250Z,18.90
2022-08-20T17:32:09.222Z,18.90
2022-08-20T17:34:53.373Z,18.90
2022-08-20T17:37:33.366Z,18.90
2022-08-20T17:40:08.703Z,19.00
2022-08-20T17:42:58.286Z,19.00
2022-08-20T17:45:31.535Z,19.00
2022-08-20T17:48:00.091Z,19.00
2022-08-20T17:50:39.860Z,19.10
2022-08-20T17:53:12.098Z,19.10
2022-08-20T17:55:41.958Z,19.10
2022-08-20T17:58:13.709Z,19.10
2022-08-20T18:00:42.064Z,19.00
2022-08-20T18:03:23.890Z,19.00
2022-08-20T18:06:03.090Z,19.00
2022-08-20T18:08:51.348Z,18.90
2022-08-20T18:11:32.621Z,18.80
2022-08-20T18:14:11.322Z,18.80
2022-08-20T18:16:58.402Z,18.80
2022-08-20T18:20:03.638Z,18.70
2022-08-20T18:22:33.632Z,18.70
2022-08-20T18:25:28.483Z,18.70
2022-08-20T18:28:03.658Z,18.50
2022-08-20T18:30:32.371Z,18.40
2022-08-20T18:33:06.705Z,18.30
2022-08-20T18:35:45.794Z,18.30
2022-08-20T18:38:24.940Z,18.30
2022-08-20T18:40:55.063Z,18.30
2022-08-20T18:43:30.610Z,18.20
2022-08-20T18:46:14.463Z,18.20
2022-08-20T18:48:51.940Z,18.10
2022-08-20T18:51:23.868Z,18.00
2022-08-20T18:53:51.936Z,18.00
2022-08-20T18:56:30.826Z,18.00
2022-08-20T18:59:06.346Z,17.90
2022-08-20T19:01:37.053Z,17.90
2022-08-20T19:04:17.788Z,17.90
2022-08-20T19:06:47.957Z,17.90
2022-08-20T19:09:23.598Z,17.90
2022-08-20T19:11:50.414Z,17.80
2022-08-20T19:14:26.229Z,17.80
2022-08-20T19:17:25.235Z,17.80
2022-08-20T19:20:04.937Z,17.80
2022-08-20T19:22:34.385Z,17.80
2022-08-20T19:25:01.311Z,17.70
2022-08-20T19:27:29.603Z,17.70
2022-08-20T19:29:57.847Z,17.70
2022-08-20T19:32:25.990Z,17.70
2022-08-20T19:35:01.612Z,17.70
2022-08-20T19:37:50.715Z,17.70
2022-08-20T19:40:28.538Z,17.60
2022-08-20T19:42:59.697Z,17.60
2022-08-20T19:45:32.209Z,17.60
2022-08-20T19:48:13.852Z,17.50
2022-08-20T19:51:00.150Z,17.40
2022-08-20T19:53:31.058Z,17.50
2022-08-20T19:56:02.205Z,17.40
2022-08-20T19:58:31.231Z,17.40
2022-08-20T20:00:59.353Z,17.40
2022-08-20T20:03:29.368Z,17.30
2022-08-20T20:06:00.798Z,17.30
2022-08-20T20:08:36.621Z,17.30
2022-08-20T20:11:04.210Z,17.30
2022-08-20T20:13:39.733Z,17.30
2022-08-20T20:16:07.802Z,17.30
2022-08-20T20:18:39.402Z,17.20
2022-08-20T20:21:43.614Z,17.20
2022-08-20T20:24:19.790Z,17.20
2022-08-20T20:26:49.382Z,17.20
2022-08-20T20:29:35.530Z,17.10
2022-08-20T20:32:19.689Z,17.20
2022-08-20T20:34:55.321Z,17.10
2022-08-20T20:37:45.361Z,17.10
2022-08-20T20:40:26.616Z,17.10
2022-08-20T20:43:00.274Z,17.10
2022-08-20T20:45:33.523Z,17.10
2022-08-20T20:48:10.233Z,17.10
2022-08-20T20:50:38.428Z,17.10
2022-08-20T20:53:05.621Z,17.00
2022-08-20T20:55:36.055Z,17.00
2022-08-20T20:58:03.745Z,17.00
2022-08-20T21:00:33.034Z,17.00
2022-08-20T21:03:03.928Z,17.00
2022-08-20T21:05:32.401Z,16.90
2022-08-20T21:08:02.386Z,17.00
2022-08-20T21:10:32.429Z,16.90
2022-08-20T21:12:59.617Z,16.90
2022-08-20T21:15:27.191Z,16.90
2022-08-20T21:17:54.621Z,16.90
2022-08-20T21:20:22.594Z,16.90
2022-08-20T21:22:49.455Z,16.90
2022-08-20T21:25:18.683Z,16.90
2022-08-20T21:27:49.575Z,16.90
2022-08-20T21:30:17.950Z,16.90
2022-08-20T21:32:44.783Z,16.90
2022-08-20T21:35:12.684Z,16.90
2022-08-20T21:37:39.611Z,16.90
2022-08-20T21:40:09.224Z,16.80
2022-08-20T21:42:40.405Z,16.80
2022-08-20T21:45:09.505Z,16.80
2022-08-20T21:47:36.529Z,16.80
2022-08-20T21:50:04.679Z,16.70
2022-08-20T21:52:31.686Z,16.70
2022-08-20T21:54:58.528Z,16.70
2022-08-20T21:57:29.871Z,16.70
2022-08-20T21:59:57.800Z,16.60
2022-08-20T22:02:26.101Z,16.60
2022-08-20T22:04:53.855Z,16.60
2022-08-20T22:07:21.668Z,16.50
2022-08-20T22:09:48.614Z,16.50
2022-08-20T22:12:21.979Z,16.50
2022-08-20T22:14:49.410Z,16.40
2022-08-20T22:17:16.424Z,16.40
2022-08-20T22:19:43.336Z,16.30
2022-08-20T22:22:11.230Z,16.30
2022-08-20T22:24:38.815Z,16.30
2022-08-20T22:27:06.644Z,16.30
2022-08-20T22:29:33.627Z,16.20
2022-08-20T22:32:00.954Z,16.30
2022-08-20T22:34:31.299Z,16.20
2022-08-20T22:36:59.601Z,16.20
2022-08-20T22:39:26.912Z,16.20
2022-08-20T22:41:53.748Z,16.10
2022-08-20T22:44:20.867Z,16.10
2022-08-20T22:46:52.624Z,16.10
2022-08-20T22:49:26.808Z,16.00
2022-08-20T22:51:53.925Z,16.00
2022-08-20T22:54:24.446Z,16.00
2022-08-20T22:56:52.506Z,16.00
2022-08-20T22:59:21.147Z,15.90
2022-08-20T23:01:48.390Z,15.90
2022-08-20T23:04:34.350Z,15.90
2022-08-20T23:07:02.605Z,15.80
2022-08-20T23:09:30.285Z,15.80
2022-08-20T23:11:57.335Z,15.80
2022-08-20T23:14:26.945Z,15.70
2022-08-20T23:17:17.912Z,15.70
2022-08-20T23:19:45.686Z,15.70
2022-08-20T23:22:12.901Z,15.70
2022-08-20T23:24:40.405Z,15.60
2022-08-20T23:27:10.033Z,15.60
2022-08-20T23:29:36.928Z,15.60
2022-08-20T23:32:04.059Z,15.60
2022-08-20T23:34:30.951Z,15.50
2022-08-20T23:36:58.269Z,15.50
2022-08-20T23:39:26.626Z,15.40
2022-08-20T23:41:53.896Z,15.40
2022-08-20T23:44:26.583Z,15.40
2022-08-20T23:49:30.763Z,15.40
2022-08-20T23:52:00.443Z,15.40
2022-08-20T23:54:29.729Z,15.30
2022-08-20T23:56:56.951Z,15.30
2022-08-20T23:59:24.719Z,15.30
